Terminal Aerodrome Forecast
Issued by NWS

Home | Current Version | Previous Version | Text Only | Print | Product List | Glossary On
Versions: 1 2 3 4 5 6 7 8 9 10 11 12 13 14 15 16 17 18
968
FTUS43 KDVN 092025 AAA
TAFCID
TAF AMD
KCID 092025Z 0920/1018 29008KT P6SM SCT019 SCT150
      TEMPO 0920/0922 BKN019
     FM100100 VRB03KT P6SM OVC070
     FM101200 15004KT P6SM OVC060
     FM101600 14007KT P6SM OVC035=

USA.gov is the U.S. government's official web portal to all federal, state and local government web resources and services.